CYVRCYLW

Guest
Details From CYVR - Vancouver Intl
To CYLW - Kelowna
Flight Number -
Tags Decoded
Created
Modified
Stats Distance 156 nm / 288 km
Max Altitude 0 ft / 0 m
Waypoints 2
Social Downloads 11
Likes 0
Share VATSIM

Download

Looking for another format? Having issues loading an existing format? Contact us
Advertisement - Login to hide

Notes

Decoded

Route

CYVR CYLW

ID Type Via Altitude Latitude Longitude Leg Dist Tot Dist Heading (true) Name
O CYVR APT - 0 ft / 0 m 49.20509˚ -123.20131˚ - 0 nm - -
O CYLW APT - 0 ft / 0 m 49.96608˚ -119.37914˚ 155 nm 155 nm 71° / 74° -

Altitude Profile

Advertisement - Login to hide

CYVR

Details ICAO CYVR (YVR)
Name Vancouver Intl
Region Canada
Timezone America/Vancouver (UTC-7.0)
Stats Elevation 14 ft / 4 m (AMSL)
Location 49.192331° -123.187993°
Runways 4
Magnetic Variation 16.197° E

METAR

CYVR 270900Z 10008KT 20SM SCT071 BKN230 13/07 A3021 RMK AC4CS2 SLP231

Decode

TAF

TAF CYVR 270838Z 2709/2812 10010KT P6SM BKN080 FM271800 13010KT P6SM FEW060 FM272100 17008KT P6SM SKC BECMG 2802/2804 11010KT RMK NXT FCST BY 271200Z

Decode

Departure Runways

ID Width Length Bearing (true) Bearing (mag) Surface Threshold Offset Overrun Length
08 75 ft / 23 m 3,497 ft / 1,066 m 100.01° 83.81° Concrete 0 ft / 0 m 0 ft / 0 m
08L 200 ft / 61 m 9,910 ft / 3,021 m 99.80° 83.60° Concrete 0 ft / 0 m 0 ft / 0 m
08R 200 ft / 61 m 11,491 ft / 3,502 m 99.94° 83.74° Asphalt 0 ft / 0 m 0 ft / 0 m
12 200 ft / 61 m 7,291 ft / 2,222 m 141.91° 125.71° Asphalt 0 ft / 0 m 0 ft / 0 m
26 75 ft / 23 m 3,497 ft / 1,066 m 280.02° 263.82° Concrete 0 ft / 0 m 0 ft / 0 m
26L 200 ft / 61 m 11,491 ft / 3,502 m 279.97° 263.77° Asphalt 0 ft / 0 m 0 ft / 0 m
26R 200 ft / 61 m 9,910 ft / 3,021 m 279.83° 263.63° Concrete 0 ft / 0 m 0 ft / 0 m
30 200 ft / 61 m 7,291 ft / 2,222 m 321.93° 305.73° Asphalt 0 ft / 0 m 0 ft / 0 m

CYLW

Details ICAO CYLW (YLW)
Name Kelowna
Region Canada
Timezone America/Vancouver (UTC-7.0)
Stats Elevation 1,409 ft / 429 m (AMSL)
Location 49.956117° -119.377757°
Runways 1
Magnetic Variation 15.564° E

METAR

CYLW 270900Z AUTO 17004KT 140V220 9SM CLR 13/05 A3010 RMK SLP192

Decode

TAF

TAF TAF CYLW 270638Z 2707/2719 15008KT P6SM FEW250 BECMG 2708/2710 VRB03KT RMK FCST BASED ON AUTO OBS. NXT FCST BY 271300Z

Decode

Destination Runways

ID Width Length Bearing (true) Bearing (mag) Surface Threshold Offset Overrun Length
16 200 ft / 61 m 7,299 ft / 2,225 m 174.89° 159.33° Asphalt 0 ft / 0 m 0 ft / 0 m
34 200 ft / 61 m 7,299 ft / 2,225 m 354.89° 339.33° Asphalt 0 ft / 0 m 0 ft / 0 m

Approach Navaids

Runway Type Ident Frequency Range Bearing (true) Bearing (mag) Slope Elevation
16 Localiser ILW 111.30 MHz 18 nm / 33 km 174.87° 159.31° - 1,049 ft / 320 m (AMSL)
16 Glidescope ILW 111.30 MHz 10 nm / 19 km 174.89° 159.32° 3.20° 1,409 ft / 429 m (AMSL)
16 DME ILW 111.30 MHz 18 nm / 33 km - - - 1,409 ft / 429 m (AMSL)

Popular Alternatives